sensor_id;sensor_type;location;lat;lon;timestamp;P1;durP1;ratioP1;P2;durP2;ratioP2
67028;SDS011;53934;52.142;11.738;2022-10-16T11:10:27;2.83;;;1.00;;
67028;SDS011;53934;52.142;11.738;2022-10-16T11:15:25;1.80;;;1.00;;
67028;SDS011;53934;52.142;11.738;2022-10-16T11:17:57;2.13;;;1.00;;
67028;SDS011;53934;52.142;11.738;2022-10-16T11:20:30;2.83;;;0.90;;
67028;SDS011;53934;52.142;11.738;2022-10-16T11:23:00;2.40;;;1.00;;
67028;SDS011;53934;52.142;11.738;2022-10-16T11:25:33;2.35;;;1.13;;
67028;SDS011;53934;52.142;11.738;2022-10-16T11:28:01;3.20;;;1.13;;
67028;SDS011;53934;52.142;11.738;2022-10-16T11:30:33;5.30;;;1.00;;
67028;SDS011;53934;52.142;11.738;2022-10-16T11:33:10;2.10;;;0.90;;
67028;SDS011;53934;52.142;11.738;2022-10-16T11:35:57;1.48;;;0.70;;
67028;SDS011;53934;52.142;11.738;2022-10-16T11:38:29;3.92;;;0.90;;
67028;SDS011;53934;52.142;11.738;2022-10-16T11:41:02;2.28;;;0.90;;
67028;SDS011;53934;52.142;11.738;2022-10-16T11:43:42;2.78;;;0.80;;
67028;SDS011;53934;52.142;11.738;2022-10-16T11:46:13;1.70;;;0.90;;
67028;SDS011;53934;52.142;11.738;2022-10-16T11:48:45;3.53;;;0.90;;
67028;SDS011;53934;52.142;11.738;2022-10-16T11:51:17;1.25;;;0.80;;
67028;SDS011;53934;52.142;11.738;2022-10-16T11:53:51;1.38;;;0.80;;
67028;SDS011;53934;52.142;11.738;2022-10-16T11:56:26;1.60;;;0.90;;
67028;SDS011;53934;52.142;11.738;2022-10-16T11:58:56;1.40;;;0.80;;
67028;SDS011;53934;52.142;11.738;2022-10-16T12:01:28;1.38;;;0.70;;
67028;SDS011;53934;52.142;11.738;2022-10-16T12:04:02;2.78;;;0.85;;
67028;SDS011;53934;52.142;11.738;2022-10-16T12:06:40;2.90;;;1.00;;
67028;SDS011;53934;52.142;11.738;2022-10-16T12:09:11;4.88;;;1.10;;
67028;SDS011;53934;52.142;11.738;2022-10-16T12:11:44;2.20;;;0.95;;
67028;SDS011;53934;52.142;11.738;2022-10-16T12:14:21;2.45;;;0.93;;
67028;SDS011;53934;52.142;11.738;2022-10-16T12:17:00;2.60;;;0.95;;
67028;SDS011;53934;52.142;11.738;2022-10-16T12:19:36;3.22;;;0.90;;
67028;SDS011;53934;52.142;11.738;2022-10-16T12:22:28;2.83;;;0.95;;
67028;SDS011;53934;52.142;11.738;2022-10-16T12:24:56;4.13;;;1.30;;
67028;SDS011;53934;52.142;11.738;2022-10-16T12:27:26;3.28;;;0.90;;
67028;SDS011;53934;52.142;11.738;2022-10-16T12:29:56;5.93;;;0.82;;
67028;SDS011;53934;52.142;11.738;2022-10-16T12:32:28;1.88;;;0.90;;
67028;SDS011;53934;52.142;11.738;2022-10-16T12:34:58;2.38;;;0.60;;
67028;SDS011;53934;52.142;11.738;2022-10-16T12:37:26;3.83;;;0.90;;
67028;SDS011;53934;52.142;11.738;2022-10-16T12:39:56;3.42;;;1.00;;
67028;SDS011;53934;52.142;11.738;2022-10-16T12:42:32;1.80;;;0.88;;
67028;SDS011;53934;52.142;11.738;2022-10-16T12:45:00;3.28;;;0.80;;
67028;SDS011;53934;52.142;11.738;2022-10-16T12:47:37;2.10;;;0.85;;
67028;SDS011;53934;52.142;11.738;2022-10-16T12:53:16;7.57;;;1.25;;
67028;SDS011;53934;52.142;11.738;2022-10-16T12:55:46;4.30;;;1.00;;
67028;SDS011;53934;52.142;11.738;2022-10-16T12:58:31;1.95;;;0.90;;
67028;SDS011;53934;52.142;11.738;2022-10-16T13:01:10;3.13;;;0.98;;
67028;SDS011;53934;52.142;11.738;2022-10-16T13:03:50;4.38;;;0.80;;
67028;SDS011;53934;52.142;11.738;2022-10-16T13:06:32;2.78;;;0.93;;
67028;SDS011;53934;52.142;11.738;2022-10-16T13:09:13;3.50;;;0.93;;
67028;SDS011;53934;52.142;11.738;2022-10-16T13:11:52;1.30;;;0.75;;
67028;SDS011;53934;52.142;11.738;2022-10-16T13:17:37;2.58;;;1.08;;
67028;SDS011;53934;52.142;11.738;2022-10-16T13:20:12;4.88;;;0.90;;
67028;SDS011;53934;52.142;11.738;2022-10-16T13:22:48;1.73;;;0.85;;
67028;SDS011;53934;52.142;11.738;2022-10-16T13:25:22;2.28;;;0.85;;
67028;SDS011;53934;52.142;11.738;2022-10-16T13:27:55;1.58;;;0.70;;
67028;SDS011;53934;52.142;11.738;2022-10-16T13:30:26;2.42;;;0.73;;
67028;SDS011;53934;52.142;11.738;2022-10-16T13:32:59;2.08;;;0.90;;
67028;SDS011;53934;52.142;11.738;2022-10-16T13:35:27;4.88;;;0.85;;
67028;SDS011;53934;52.142;11.738;2022-10-16T13:38:06;5.03;;;1.30;;
67028;SDS011;53934;52.142;11.738;2022-10-16T13:40:47;3.03;;;0.70;;
67028;SDS011;53934;52.142;11.738;2022-10-16T13:43:16;2.80;;;1.00;;
67028;SDS011;53934;52.142;11.738;2022-10-16T13:45:53;2.75;;;0.80;;
67028;SDS011;53934;52.142;11.738;2022-10-16T13:48:21;2.17;;;0.70;;
67028;SDS011;53934;52.142;11.738;2022-10-16T13:50:57;1.52;;;0.70;;
67028;SDS011;53934;52.142;11.738;2022-10-16T13:53:24;5.18;;;0.80;;
67028;SDS011;53934;52.142;11.738;2022-10-16T13:55:51;3.05;;;0.90;;
67028;SDS011;53934;52.142;11.738;2022-10-16T13:58:17;3.08;;;0.80;;
67028;SDS011;53934;52.142;11.738;2022-10-16T14:00:54;0.73;;;0.50;;
67028;SDS011;53934;52.142;11.738;2022-10-16T14:03:22;2.35;;;0.80;;
67028;SDS011;53934;52.142;11.738;2022-10-16T14:05:51;2.90;;;0.70;;
67028;SDS011;53934;52.142;11.738;2022-10-16T14:08:19;3.25;;;0.60;;
67028;SDS011;53934;52.142;11.738;2022-10-16T14:10:47;1.67;;;0.60;;
67028;SDS011;53934;52.142;11.738;2022-10-16T14:13:16;0.88;;;0.55;;
67028;SDS011;53934;52.142;11.738;2022-10-16T14:15:45;3.83;;;0.77;;
67028;SDS011;53934;52.142;11.738;2022-10-16T14:18:16;1.33;;;0.70;;
67028;SDS011;53934;52.142;11.738;2022-10-16T14:20:46;1.23;;;0.57;;
67028;SDS011;53934;52.142;11.738;2022-10-16T14:23:19;3.08;;;0.80;;
67028;SDS011;53934;52.142;11.738;2022-10-16T14:25:48;2.92;;;0.77;;
67028;SDS011;53934;52.142;11.738;2022-10-16T14:28:15;1.77;;;0.68;;
67028;SDS011;53934;52.142;11.738;2022-10-16T14:30:49;1.17;;;0.88;;
67028;SDS011;53934;52.142;11.738;2022-10-16T14:33:23;3.17;;;0.82;;
67028;SDS011;53934;52.142;11.738;2022-10-16T14:36:01;2.15;;;0.70;;
67028;SDS011;53934;52.142;11.738;2022-10-16T14:38:30;2.92;;;0.80;;
67028;SDS011;53934;52.142;11.738;2022-10-16T14:40:58;3.78;;;1.00;;
67028;SDS011;53934;52.142;11.738;2022-10-16T14:43:28;2.55;;;1.08;;
67028;SDS011;53934;52.142;11.738;2022-10-16T14:45:58;4.78;;;0.93;;
67028;SDS011;53934;52.142;11.738;2022-10-16T14:48:26;1.77;;;0.70;;
67028;SDS011;53934;52.142;11.738;2022-10-16T14:50:52;2.75;;;0.70;;
67028;SDS011;53934;52.142;11.738;2022-10-16T14:53:19;1.50;;;0.60;;
67028;SDS011;53934;52.142;11.738;2022-10-16T14:55:45;3.13;;;0.80;;
67028;SDS011;53934;52.142;11.738;2022-10-16T14:58:13;1.92;;;0.70;;
67028;SDS011;53934;52.142;11.738;2022-10-16T15:00:42;2.50;;;0.65;;
67028;SDS011;53934;52.142;11.738;2022-10-16T15:03:08;1.60;;;0.70;;
67028;SDS011;53934;52.142;11.738;2022-10-16T15:05:37;6.95;;;0.75;;
67028;SDS011;53934;52.142;11.738;2022-10-16T15:08:03;1.75;;;0.65;;
67028;SDS011;53934;52.142;11.738;2022-10-16T15:10:30;2.05;;;0.65;;
67028;SDS011;53934;52.142;11.738;2022-10-16T15:13:01;4.95;;;0.82;;
67028;SDS011;53934;52.142;11.738;2022-10-16T15:15:35;2.22;;;0.70;;
67028;SDS011;53934;52.142;11.738;2022-10-16T15:18:03;4.40;;;0.80;;
67028;SDS011;53934;52.142;11.738;2022-10-16T15:20:31;1.63;;;0.80;;
67028;SDS011;53934;52.142;11.738;2022-10-16T15:23:01;3.05;;;0.60;;
67028;SDS011;53934;52.142;11.738;2022-10-16T15:25:30;4.50;;;0.80;;
67028;SDS011;53934;52.142;11.738;2022-10-16T15:27:58;2.00;;;0.68;;
67028;SDS011;53934;52.142;11.738;2022-10-16T15:30:26;2.25;;;0.93;;
67028;SDS011;53934;52.142;11.738;2022-10-16T15:32:53;4.10;;;0.77;;
67028;SDS011;53934;52.142;11.738;2022-10-16T15:35:19;2.90;;;0.82;;
67028;SDS011;53934;52.142;11.738;2022-10-16T15:37:46;5.35;;;0.70;;
67028;SDS011;53934;52.142;11.738;2022-10-16T15:40:15;2.17;;;0.80;;
67028;SDS011;53934;52.142;11.738;2022-10-16T15:42:42;2.40;;;1.15;;
67028;SDS011;53934;52.142;11.738;2022-10-16T15:45:08;11.80;;;1.63;;
67028;SDS011;53934;52.142;11.738;2022-10-16T15:47:36;5.68;;;1.30;;
67028;SDS011;53934;52.142;11.738;2022-10-16T15:50:02;2.85;;;1.00;;
67028;SDS011;53934;52.142;11.738;2022-10-16T15:52:29;5.88;;;0.90;;
67028;SDS011;53934;52.142;11.738;2022-10-16T15:54:56;4.03;;;1.10;;
67028;SDS011;53934;52.142;11.738;2022-10-16T15:57:24;7.50;;;0.95;;
67028;SDS011;53934;52.142;11.738;2022-10-16T15:59:51;9.73;;;1.05;;
67028;SDS011;53934;52.142;11.738;2022-10-16T16:02:17;1.67;;;0.73;;
67028;SDS011;53934;52.142;11.738;2022-10-16T16:04:44;5.80;;;1.25;;
67028;SDS011;53934;52.142;11.738;2022-10-16T16:07:10;8.02;;;1.35;;
67028;SDS011;53934;52.142;11.738;2022-10-16T16:09:37;8.90;;;1.48;;
67028;SDS011;53934;52.142;11.738;2022-10-16T16:12:03;9.15;;;1.60;;
67028;SDS011;53934;52.142;11.738;2022-10-16T16:14:31;5.50;;;1.13;;
67028;SDS011;53934;52.142;11.738;2022-10-16T16:16:58;3.85;;;1.00;;
67028;SDS011;53934;52.142;11.738;2022-10-16T16:19:24;2.75;;;0.90;;
67028;SDS011;53934;52.142;11.738;2022-10-16T16:21:51;3.78;;;1.02;;
67028;SDS011;53934;52.142;11.738;2022-10-16T16:24:17;4.05;;;1.48;;
67028;SDS011;53934;52.142;11.738;2022-10-16T16:26:44;8.60;;;1.58;;
67028;SDS011;53934;52.142;11.738;2022-10-16T16:29:11;3.90;;;1.10;;
67028;SDS011;53934;52.142;11.738;2022-10-16T16:31:40;7.20;;;1.60;;
67028;SDS011;53934;52.142;11.738;2022-10-16T16:34:06;4.82;;;2.40;;
67028;SDS011;53934;52.142;11.738;2022-10-16T16:36:33;8.02;;;3.28;;
67028;SDS011;53934;52.142;11.738;2022-10-16T16:39:00;5.55;;;2.40;;
67028;SDS011;53934;52.142;11.738;2022-10-16T16:41:28;6.85;;;1.85;;
67028;SDS011;53934;52.142;11.738;2022-10-16T16:44:01;5.60;;;1.55;;
67028;SDS011;53934;52.142;11.738;2022-10-16T16:46:28;3.30;;;1.48;;
67028;SDS011;53934;52.142;11.738;2022-10-16T16:48:56;7.35;;;1.92;;
67028;SDS011;53934;52.142;11.738;2022-10-16T16:51:24;6.82;;;1.85;;
67028;SDS011;53934;52.142;11.738;2022-10-16T16:53:51;5.18;;;2.00;;
67028;SDS011;53934;52.142;11.738;2022-10-16T16:56:19;9.73;;;2.83;;
67028;SDS011;53934;52.142;11.738;2022-10-16T16:58:47;7.13;;;4.10;;
67028;SDS011;53934;52.142;11.738;2022-10-16T17:01:15;12.82;;;5.07;;
67028;SDS011;53934;52.142;11.738;2022-10-16T17:03:43;13.60;;;6.13;;
67028;SDS011;53934;52.142;11.738;2022-10-16T17:06:11;15.70;;;7.05;;
67028;SDS011;53934;52.142;11.738;2022-10-16T17:08:39;12.60;;;6.50;;
67028;SDS011;53934;52.142;11.738;2022-10-16T17:11:06;14.13;;;6.50;;
67028;SDS011;53934;52.142;11.738;2022-10-16T17:13:37;14.98;;;5.88;;
67028;SDS011;53934;52.142;11.738;2022-10-16T17:16:04;9.82;;;5.18;;
67028;SDS011;53934;52.142;11.738;2022-10-16T17:18:32;12.88;;;6.18;;
67028;SDS011;53934;52.142;11.738;2022-10-16T17:20:59;17.08;;;7.88;;
67028;SDS011;53934;52.142;11.738;2022-10-16T17:23:27;18.08;;;8.35;;
67028;SDS011;53934;52.142;11.738;2022-10-16T17:25:54;16.88;;;10.65;;
67028;SDS011;53934;52.142;11.738;2022-10-16T17:28:20;22.05;;;11.48;;
67028;SDS011;53934;52.142;11.738;2022-10-16T17:30:47;18.08;;;10.85;;
67028;SDS011;53934;52.142;11.738;2022-10-16T17:33:13;21.38;;;11.25;;
67028;SDS011;53934;52.142;11.738;2022-10-16T17:35:41;22.02;;;11.27;;
67028;SDS011;53934;52.142;11.738;2022-10-16T17:38:09;27.08;;;11.85;;
67028;SDS011;53934;52.142;11.738;2022-10-16T17:40:37;21.65;;;10.73;;
67028;SDS011;53934;52.142;11.738;2022-10-16T17:43:05;14.90;;;9.38;;
67028;SDS011;53934;52.142;11.738;2022-10-16T17:45:35;19.23;;;9.95;;
67028;SDS011;53934;52.142;11.738;2022-10-16T17:48:02;12.82;;;8.13;;
67028;SDS011;53934;52.142;11.738;2022-10-16T17:50:29;21.45;;;9.52;;
67028;SDS011;53934;52.142;11.738;2022-10-16T17:52:55;17.58;;;9.35;;
67028;SDS011;53934;52.142;11.738;2022-10-16T17:55:22;16.02;;;9.98;;
67028;SDS011;53934;52.142;11.738;2022-10-16T17:57:50;21.50;;;10.85;;
67028;SDS011;53934;52.142;11.738;2022-10-16T18:00:17;16.63;;;9.63;;
67028;SDS011;53934;52.142;11.738;2022-10-16T18:02:44;16.88;;;8.73;;
67028;SDS011;53934;52.142;11.738;2022-10-16T18:05:13;16.63;;;7.88;;
67028;SDS011;53934;52.142;11.738;2022-10-16T18:07:40;23.70;;;8.80;;
67028;SDS011;53934;52.142;11.738;2022-10-16T18:10:06;13.35;;;7.88;;
67028;SDS011;53934;52.142;11.738;2022-10-16T18:12:33;17.67;;;7.82;;
67028;SDS011;53934;52.142;11.738;2022-10-16T18:15:01;21.90;;;8.40;;
67028;SDS011;53934;52.142;11.738;2022-10-16T18:17:28;14.43;;;7.80;;
67028;SDS011;53934;52.142;11.738;2022-10-16T18:19:55;15.60;;;7.57;;
67028;SDS011;53934;52.142;11.738;2022-10-16T18:22:22;14.88;;;7.38;;
67028;SDS011;53934;52.142;11.738;2022-10-16T18:24:49;15.60;;;7.70;;
67028;SDS011;53934;52.142;11.738;2022-10-16T18:27:15;14.32;;;7.50;;
67028;SDS011;53934;52.142;11.738;2022-10-16T18:29:42;14.23;;;6.85;;
67028;SDS011;53934;52.142;11.738;2022-10-16T18:32:09;19.80;;;7.43;;
67028;SDS011;53934;52.142;11.738;2022-10-16T18:34:36;10.35;;;6.03;;
67028;SDS011;53934;52.142;11.738;2022-10-16T18:37:02;11.65;;;6.32;;
67028;SDS011;53934;52.142;11.738;2022-10-16T18:39:29;9.43;;;5.63;;
67028;SDS011;53934;52.142;11.738;2022-10-16T18:41:55;16.00;;;5.78;;
67028;SDS011;53934;52.142;11.738;2022-10-16T18:44:23;9.45;;;5.45;;
67028;SDS011;53934;52.142;11.738;2022-10-16T18:46:50;7.80;;;4.82;;
67028;SDS011;53934;52.142;11.738;2022-10-16T18:49:22;11.18;;;5.35;;
67028;SDS011;53934;52.142;11.738;2022-10-16T18:51:50;11.60;;;5.78;;
67028;SDS011;53934;52.142;11.738;2022-10-16T18:54:21;10.88;;;5.97;;
67028;SDS011;53934;52.142;11.738;2022-10-16T18:56:49;9.18;;;5.18;;
67028;SDS011;53934;52.142;11.738;2022-10-16T18:59:17;8.70;;;4.75;;
67028;SDS011;53934;52.142;11.738;2022-10-16T19:01:43;9.27;;;4.93;;
67028;SDS011;53934;52.142;11.738;2022-10-16T19:04:12;12.15;;;5.40;;
67028;SDS011;53934;52.142;11.738;2022-10-16T19:06:42;11.13;;;5.88;;
67028;SDS011;53934;52.142;11.738;2022-10-16T19:09:10;10.70;;;5.80;;
67028;SDS011;53934;52.142;11.738;2022-10-16T19:11:38;9.10;;;4.95;;
67028;SDS011;53934;52.142;11.738;2022-10-16T19:14:04;10.00;;;4.82;;
67028;SDS011;53934;52.142;11.738;2022-10-16T19:16:32;10.13;;;4.50;;
67028;SDS011;53934;52.142;11.738;2022-10-16T19:19:03;7.88;;;3.38;;
67028;SDS011;53934;52.142;11.738;2022-10-16T19:21:33;8.82;;;4.13;;
67028;SDS011;53934;52.142;11.738;2022-10-16T19:24:01;10.95;;;3.97;;
67028;SDS011;53934;52.142;11.738;2022-10-16T19:26:29;8.02;;;3.50;;
67028;SDS011;53934;52.142;11.738;2022-10-16T19:28:59;8.45;;;4.00;;
67028;SDS011;53934;52.142;11.738;2022-10-16T19:31:28;9.35;;;4.03;;
67028;SDS011;53934;52.142;11.738;2022-10-16T19:33:56;9.55;;;3.67;;
67028;SDS011;53934;52.142;11.738;2022-10-16T19:36:24;8.20;;;3.67;;
67028;SDS011;53934;52.142;11.738;2022-10-16T19:38:53;10.48;;;4.30;;
67028;SDS011;53934;52.142;11.738;2022-10-16T19:41:22;7.40;;;4.40;;
67028;SDS011;53934;52.142;11.738;2022-10-16T19:43:49;5.65;;;3.25;;
67028;SDS011;53934;52.142;11.738;2022-10-16T19:46:17;12.80;;;4.07;;
67028;SDS011;53934;52.142;11.738;2022-10-16T19:48:44;6.88;;;3.95;;
67028;SDS011;53934;52.142;11.738;2022-10-16T19:51:13;9.27;;;3.95;;
67028;SDS011;53934;52.142;11.738;2022-10-16T19:53:41;7.63;;;3.70;;
67028;SDS011;53934;52.142;11.738;2022-10-16T19:56:10;7.93;;;3.80;;
67028;SDS011;53934;52.142;11.738;2022-10-16T19:58:38;9.43;;;4.18;;
67028;SDS011;53934;52.142;11.738;2022-10-16T20:01:05;13.73;;;4.28;;
67028;SDS011;53934;52.142;11.738;2022-10-16T20:03:31;9.27;;;4.10;;
67028;SDS011;53934;52.142;11.738;2022-10-16T20:05:59;7.85;;;3.72;;
67028;SDS011;53934;52.142;11.738;2022-10-16T20:08:30;9.65;;;3.85;;
67028;SDS011;53934;52.142;11.738;2022-10-16T20:10:57;8.15;;;3.70;;
67028;SDS011;53934;52.142;11.738;2022-10-16T20:13:24;7.68;;;3.38;;
67028;SDS011;53934;52.142;11.738;2022-10-16T20:15:52;5.00;;;3.28;;
67028;SDS011;53934;52.142;11.738;2022-10-16T20:18:18;8.25;;;3.70;;
67028;SDS011;53934;52.142;11.738;2022-10-16T20:20:46;8.50;;;3.88;;
67028;SDS011;53934;52.142;11.738;2022-10-16T20:23:15;11.02;;;3.60;;
67028;SDS011;53934;52.142;11.738;2022-10-16T20:25:42;6.05;;;3.60;;
67028;SDS011;53934;52.142;11.738;2022-10-16T20:28:10;10.07;;;3.92;;
67028;SDS011;53934;52.142;11.738;2022-10-16T20:30:39;6.05;;;3.55;;
67028;SDS011;53934;52.142;11.738;2022-10-16T20:33:09;7.70;;;3.63;;
67028;SDS011;53934;52.142;11.738;2022-10-16T20:35:36;7.95;;;3.25;;
67028;SDS011;53934;52.142;11.738;2022-10-16T20:38:04;9.05;;;3.50;;
67028;SDS011;53934;52.142;11.738;2022-10-16T20:40:32;6.05;;;2.97;;
67028;SDS011;53934;52.142;11.738;2022-10-16T20:42:59;5.30;;;3.38;;
67028;SDS011;53934;52.142;11.738;2022-10-16T20:45:26;11.32;;;4.18;;
67028;SDS011;53934;52.142;11.738;2022-10-16T20:47:52;7.85;;;3.97;;
67028;SDS011;53934;52.142;11.738;2022-10-16T20:50:20;9.07;;;4.18;;
67028;SDS011;53934;52.142;11.738;2022-10-16T20:52:47;10.10;;;3.92;;
67028;SDS011;53934;52.142;11.738;2022-10-16T20:55:13;7.07;;;3.92;;
67028;SDS011;53934;52.142;11.738;2022-10-16T20:57:41;7.38;;;3.90;;
67028;SDS011;53934;52.142;11.738;2022-10-16T21:00:08;7.53;;;3.47;;
67028;SDS011;53934;52.142;11.738;2022-10-16T21:02:35;8.60;;;3.63;;
67028;SDS011;53934;52.142;11.738;2022-10-16T21:05:01;9.65;;;3.55;;
67028;SDS011;53934;52.142;11.738;2022-10-16T21:07:29;7.55;;;3.30;;
67028;SDS011;53934;52.142;11.738;2022-10-16T21:09:56;8.38;;;3.50;;
67028;SDS011;53934;52.142;11.738;2022-10-16T21:12:23;7.82;;;2.88;;
67028;SDS011;53934;52.142;11.738;2022-10-16T21:14:50;8.70;;;3.30;;
67028;SDS011;53934;52.142;11.738;2022-10-16T21:17:17;5.70;;;2.90;;
67028;SDS011;53934;52.142;11.738;2022-10-16T21:19:44;9.00;;;3.10;;
67028;SDS011;53934;52.142;11.738;2022-10-16T21:22:11;7.35;;;2.92;;
67028;SDS011;53934;52.142;11.738;2022-10-16T21:24:39;7.35;;;3.05;;
67028;SDS011;53934;52.142;11.738;2022-10-16T21:27:05;6.45;;;2.90;;
67028;SDS011;53934;52.142;11.738;2022-10-16T21:29:32;6.53;;;3.30;;
67028;SDS011;53934;52.142;11.738;2022-10-16T21:31:59;6.85;;;3.15;;
67028;SDS011;53934;52.142;11.738;2022-10-16T21:34:25;5.03;;;2.80;;
67028;SDS011;53934;52.142;11.738;2022-10-16T21:36:52;5.55;;;3.08;;
67028;SDS011;53934;52.142;11.738;2022-10-16T21:39:19;5.28;;;2.65;;
67028;SDS011;53934;52.142;11.738;2022-10-16T21:41:48;15.27;;;3.13;;
67028;SDS011;53934;52.142;11.738;2022-10-16T21:44:15;4.35;;;2.60;;
67028;SDS011;53934;52.142;11.738;2022-10-16T21:46:44;7.47;;;2.83;;
67028;SDS011;53934;52.142;11.738;2022-10-16T21:49:12;6.18;;;2.70;;
67028;SDS011;53934;52.142;11.738;2022-10-16T21:51:40;5.72;;;2.42;;
67028;SDS011;53934;52.142;11.738;2022-10-16T21:54:09;3.15;;;2.30;;
67028;SDS011;53934;52.142;11.738;2022-10-16T21:56:37;9.35;;;3.00;;
67028;SDS011;53934;52.142;11.738;2022-10-16T21:59:05;7.43;;;2.67;;
67028;SDS011;53934;52.142;11.738;2022-10-16T22:01:32;4.88;;;2.33;;
67028;SDS011;53934;52.142;11.738;2022-10-16T22:03:58;6.78;;;2.90;;
67028;SDS011;53934;52.142;11.738;2022-10-16T22:06:26;5.82;;;2.70;;
67028;SDS011;53934;52.142;11.738;2022-10-16T22:08:54;6.18;;;3.03;;
67028;SDS011;53934;52.142;11.738;2022-10-16T22:11:24;4.65;;;2.90;;
67028;SDS011;53934;52.142;11.738;2022-10-16T22:13:53;6.78;;;2.65;;
67028;SDS011;53934;52.142;11.738;2022-10-16T22:16:22;7.38;;;2.88;;
67028;SDS011;53934;52.142;11.738;2022-10-16T22:18:50;4.03;;;2.40;;
67028;SDS011;53934;52.142;11.738;2022-10-16T22:21:17;5.03;;;2.75;;
67028;SDS011;53934;52.142;11.738;2022-10-16T22:23:43;6.30;;;2.20;;
67028;SDS011;53934;52.142;11.738;2022-10-16T22:26:11;7.10;;;2.50;;
67028;SDS011;53934;52.142;11.738;2022-10-16T22:28:37;7.35;;;2.50;;
67028;SDS011;53934;52.142;11.738;2022-10-16T22:31:06;7.13;;;2.67;;
67028;SDS011;53934;52.142;11.738;2022-10-16T22:33:35;9.40;;;3.20;;
67028;SDS011;53934;52.142;11.738;2022-10-16T22:36:03;6.68;;;2.83;;
67028;SDS011;53934;52.142;11.738;2022-10-16T22:38:31;7.50;;;2.30;;
67028;SDS011;53934;52.142;11.738;2022-10-16T22:40:59;10.95;;;4.80;;
67028;SDS011;53934;52.142;11.738;2022-10-16T22:43:27;10.60;;;6.57;;
67028;SDS011;53934;52.142;11.738;2022-10-16T22:45:53;7.53;;;2.60;;
67028;SDS011;53934;52.142;11.738;2022-10-16T22:48:20;5.60;;;2.33;;
67028;SDS011;53934;52.142;11.738;2022-10-16T22:50:48;6.28;;;2.80;;
67028;SDS011;53934;52.142;11.738;2022-10-16T22:53:14;10.63;;;4.50;;
67028;SDS011;53934;52.142;11.738;2022-10-16T22:55:40;8.52;;;4.28;;
67028;SDS011;53934;52.142;11.738;2022-10-16T22:58:07;7.28;;;2.95;;
67028;SDS011;53934;52.142;11.738;2022-10-16T23:00:33;4.05;;;2.30;;
67028;SDS011;53934;52.142;11.738;2022-10-16T23:03:00;6.10;;;2.72;;
67028;SDS011;53934;52.142;11.738;2022-10-16T23:05:26;6.70;;;3.53;;
67028;SDS011;53934;52.142;11.738;2022-10-16T23:07:54;4.90;;;2.72;;
67028;SDS011;53934;52.142;11.738;2022-10-16T23:10:21;6.35;;;2.80;;
67028;SDS011;53934;52.142;11.738;2022-10-16T23:12:51;6.20;;;2.83;;
67028;SDS011;53934;52.142;11.738;2022-10-16T23:15:18;6.20;;;2.50;;
67028;SDS011;53934;52.142;11.738;2022-10-16T23:17:44;5.80;;;2.67;;
67028;SDS011;53934;52.142;11.738;2022-10-16T23:20:10;6.95;;;2.63;;
67028;SDS011;53934;52.142;11.738;2022-10-16T23:22:37;3.78;;;2.45;;
67028;SDS011;53934;52.142;11.738;2022-10-16T23:25:05;4.53;;;2.40;;
67028;SDS011;53934;52.142;11.738;2022-10-16T23:27:33;8.88;;;2.58;;
67028;SDS011;53934;52.142;11.738;2022-10-16T23:29:59;4.40;;;2.50;;
67028;SDS011;53934;52.142;11.738;2022-10-16T23:32:26;3.47;;;2.20;;
67028;SDS011;53934;52.142;11.738;2022-10-16T23:34:52;5.90;;;2.40;;
67028;SDS011;53934;52.142;11.738;2022-10-16T23:37:19;6.50;;;2.13;;
67028;SDS011;53934;52.142;11.738;2022-10-16T23:39:45;3.92;;;2.22;;
67028;SDS011;53934;52.142;11.738;2022-10-16T23:42:13;8.00;;;2.15;;
67028;SDS011;53934;52.142;11.738;2022-10-16T23:44:39;3.47;;;2.25;;
67028;SDS011;53934;52.142;11.738;2022-10-16T23:47:06;8.75;;;2.35;;
67028;SDS011;53934;52.142;11.738;2022-10-16T23:49:32;3.47;;;2.10;;
67028;SDS011;53934;52.142;11.738;2022-10-16T23:51:59;5.93;;;2.50;;
67028;SDS011;53934;52.142;11.738;2022-10-16T23:54:25;5.05;;;2.15;;
67028;SDS011;53934;52.142;11.738;2022-10-16T23:56:52;5.95;;;2.08;;
67028;SDS011;53934;52.142;11.738;2022-10-16T23:59:20;4.07;;;2.38;;
